Time;durP1;ratioP1;P1;durP2;ratioP2;P2;SDS_P1;SDS_P2;PMS_P1;PMS_P2;Temp;Humidity;BMP_temperature;BMP_pressure;BME280_temperature;BME280_humidity;BME280_pressure;Samples;Min_cycle;Max_cycle;Signal;HPM_P1;HPM_P2
2022/03/07 00:00:39;;;;;;;10.88;7.57;;;-0.70;88.50;;;;;;4968738;28;20161;-56
2022/03/07 00:03:05;;;;;;;8.45;7.38;;;-0.70;88.50;;;;;;4970046;28;20117;-55
2022/03/07 00:05:31;;;;;;;7.95;7.15;;;-0.60;88.00;;;;;;4969937;28;20102;-56
2022/03/07 00:07:57;;;;;;;8.50;7.60;;;-0.60;88.20;;;;;;4970446;28;20034;-55
2022/03/07 00:10:22;;;;;;;8.82;7.35;;;-0.60;88.20;;;;;;4969005;28;20449;-56
2022/03/07 00:12:48;;;;;;;9.60;7.65;;;-0.70;87.90;;;;;;4969729;28;20038;-56
2022/03/07 00:15:15;;;;;;;8.18;7.38;;;-0.70;87.70;;;;;;4969448;28;20042;-55
2022/03/07 00:17:41;;;;;;;7.93;7.18;;;-0.70;87.90;;;;;;4969566;28;20027;-56
2022/03/07 00:20:07;;;;;;;8.75;7.80;;;-0.70;87.80;;;;;;4969972;28;20038;-56
2022/03/07 00:22:32;;;;;;;10.60;7.10;;;-0.80;87.90;;;;;;4969010;28;20418;-56
2022/03/07 00:24:58;;;;;;;9.05;7.47;;;-0.90;88.40;;;;;;4969752;28;20046;-56
2022/03/07 00:27:23;;;;;;;9.80;8.25;;;-1.00;88.80;;;;;;4969314;28;20089;-55
2022/03/07 00:29:49;;;;;;;8.40;7.60;;;-1.00;89.20;;;;;;4969585;28;20390;-55
2022/03/07 00:32:15;;;;;;;9.65;7.43;;;-0.90;89.50;;;;;;4969840;28;20476;-55
2022/03/07 00:34:40;;;;;;;9.05;7.85;;;-1.00;89.60;;;;;;4969013;28;20035;-56
2022/03/07 00:37:06;;;;;;;8.88;7.85;;;-1.00;89.50;;;;;;4969805;28;20047;-56
2022/03/07 00:39:32;;;;;;;10.00;7.63;;;-1.00;90.00;;;;;;4970975;28;20126;-54
2022/03/07 00:41:57;;;;;;;11.52;8.35;;;-1.00;90.00;;;;;;4973451;28;20027;-56
2022/03/07 00:44:23;;;;;;;9.07;7.55;;;-1.00;90.00;;;;;;4973921;28;20031;-56
2022/03/07 00:46:48;;;;;;;9.18;8.25;;;-1.10;89.50;;;;;;4972673;28;20031;-55
2022/03/07 00:49:14;;;;;;;8.63;7.72;;;-1.10;90.10;;;;;;4973468;28;20512;-55
2022/03/07 00:51:40;;;;;;;16.98;12.00;;;-1.10;90.00;;;;;;4972558;28;20097;-55
2022/03/07 00:54:05;;;;;;;77.35;30.52;;;-1.10;90.00;;;;;;4973551;28;20127;-57
2022/03/07 00:56:31;;;;;;;58.40;24.55;;;-1.20;90.10;;;;;;4973196;28;20118;-56
2022/03/07 00:58:56;;;;;;;55.83;24.35;;;-1.20;90.10;;;;;;4972903;28;20050;-55
2022/03/07 01:01:22;;;;;;;26.77;15.20;;;-1.20;90.00;;;;;;4972772;28;20057;-56
2022/03/07 01:03:48;;;;;;;25.33;13.18;;;-1.20;90.10;;;;;;4971652;28;20114;-56
2022/03/07 01:06:13;;;;;;;84.70;31.80;;;-1.30;90.10;;;;;;4972903;28;20081;-55
2022/03/07 01:08:39;;;;;;;52.90;23.05;;;-1.20;90.10;;;;;;4973075;28;20027;-56
2022/03/07 01:11:06;;;;;;;54.17;21.25;;;-1.20;90.20;;;;;;4972849;28;20066;-57
2022/03/07 01:13:31;;;;;;;26.77;13.75;;;-1.20;90.20;;;;;;4972969;28;20023;-55
2022/03/07 01:15:57;;;;;;;37.60;17.40;;;-1.20;89.70;;;;;;4972026;28;20031;-55
2022/03/07 01:18:23;;;;;;;57.90;23.65;;;-1.10;90.00;;;;;;4972681;28;20142;-56
2022/03/07 01:20:48;;;;;;;23.05;13.90;;;-1.10;89.90;;;;;;4972632;28;20039;-55
2022/03/07 01:23:14;;;;;;;69.63;27.13;;;-1.10;90.00;;;;;;4969775;28;20034;-55
2022/03/07 01:25:40;;;;;;;54.15;24.45;;;-1.10;89.70;;;;;;4973058;28;20027;-55
2022/03/07 01:28:06;;;;;;;11.82;10.63;;;-1.10;90.20;;;;;;4972414;28;20042;-56
2022/03/07 01:30:32;;;;;;;14.32;11.90;;;-1.10;90.20;;;;;;4987879;28;20034;-56
2022/03/07 01:32:58;;;;;;;14.20;11.77;;;-1.10;90.40;;;;;;4972697;28;20089;-54
2022/03/07 01:35:23;;;;;;;13.60;10.68;;;-1.10;90.30;;;;;;4972902;28;20367;-56
2022/03/07 01:37:49;;;;;;;13.02;9.50;;;-1.10;90.40;;;;;;4972836;28;20075;-55
2022/03/07 01:40:15;;;;;;;11.65;9.77;;;-1.10;90.60;;;;;;4972409;28;20130;-55
2022/03/07 01:42:41;;;;;;;12.95;9.80;;;-1.10;90.70;;;;;;4972191;28;20112;-54
2022/03/07 01:45:08;;;;;;;10.77;9.68;;;-1.10;90.60;;;;;;4972479;28;20082;-56
2022/03/07 01:47:37;;;;;;;11.10;10.00;;;-1.10;90.40;;;;;;4971749;28;20023;-55
2022/03/07 01:50:04;;;;;;;12.50;11.20;;;-1.10;90.50;;;;;;4972719;28;20030;-55
2022/03/07 01:52:32;;;;;;;11.35;10.15;;;-1.10;90.40;;;;;;4972301;28;20034;-56
2022/03/07 01:54:57;;;;;;;11.15;10.00;;;-1.10;90.30;;;;;;4972814;28;20030;-55
2022/03/07 01:57:24;;;;;;;11.23;9.35;;;-1.10;90.30;;;;;;4972691;28;20100;-55
2022/03/07 01:59:49;;;;;;;10.23;9.05;;;-1.10;90.40;;;;;;4971608;28;20411;-57
2022/03/07 02:02:15;;;;;;;12.25;9.50;;;-1.10;90.30;;;;;;4972919;28;20400;-55
2022/03/07 02:04:40;;;;;;;14.13;9.18;;;-1.10;90.20;;;;;;4972265;28;20055;-56
2022/03/07 02:07:06;;;;;;;10.55;9.35;;;-1.00;90.30;;;;;;4972608;28;20031;-56
2022/03/07 02:09:32;;;;;;;12.00;9.93;;;-1.00;90.30;;;;;;4987273;28;20498;-55
2022/03/07 02:11:57;;;;;;;11.10;9.00;;;-1.00;90.20;;;;;;4971689;28;20031;-54
2022/03/07 02:14:23;;;;;;;11.70;10.10;;;-1.00;90.30;;;;;;4972146;28;20486;-54
2022/03/07 02:16:50;;;;;;;12.27;9.88;;;-1.00;90.40;;;;;;4971757;28;20031;-56
2022/03/07 02:19:16;;;;;;;11.27;10.07;;;-1.00;90.20;;;;;;4972089;28;20035;-55
2022/03/07 02:21:47;;;;;;;11.50;10.27;;;-1.00;90.30;;;;;;4971755;28;20038;-55
2022/03/07 02:24:14;;;;;;;11.02;9.93;;;-1.00;90.00;;;;;;4986220;28;20074;-55
2022/03/07 02:26:40;;;;;;;10.20;9.18;;;-1.00;90.00;;;;;;4972130;28;20529;-55
2022/03/07 02:29:08;;;;;;;11.68;10.00;;;-1.00;89.80;;;;;;4971795;28;20031;-56
2022/03/07 02:31:36;;;;;;;11.60;10.38;;;-1.00;89.70;;;;;;4971798;28;20023;-56
2022/03/07 02:34:03;;;;;;;13.55;10.07;;;-1.00;90.00;;;;;;4971686;28;20098;-56
2022/03/07 02:36:29;;;;;;;13.93;9.90;;;-1.00;88.70;;;;;;4971522;28;20027;-55
2022/03/07 02:38:55;;;;;;;13.70;9.52;;;-1.00;88.20;;;;;;4971915;28;20103;-57
2022/03/07 02:41:20;;;;;;;11.05;9.32;;;-1.10;88.20;;;;;;4971285;28;20093;-54
2022/03/07 02:43:46;;;;;;;11.43;10.02;;;-1.10;88.70;;;;;;4971391;28;20031;-55
2022/03/07 02:46:12;;;;;;;12.48;9.18;;;-1.10;88.60;;;;;;4971839;28;20027;-54
2022/03/07 02:48:37;;;;;;;11.02;9.77;;;-1.10;88.00;;;;;;4971339;28;20023;-55
2022/03/07 02:51:03;;;;;;;10.60;9.23;;;-1.10;87.60;;;;;;4971192;28;20031;-56
2022/03/07 02:53:29;;;;;;;14.27;10.23;;;-1.10;87.70;;;;;;4970480;28;20027;-55
2022/03/07 02:55:55;;;;;;;14.38;10.23;;;-1.20;85.60;;;;;;4971396;28;20038;-54
2022/03/07 02:58:21;;;;;;;10.38;8.60;;;-1.20;85.80;;;;;;4970344;28;20031;-55
2022/03/07 03:00:47;;;;;;;10.13;9.23;;;-1.20;85.90;;;;;;4971347;28;20046;-54
2022/03/07 03:03:13;;;;;;;10.65;8.70;;;-1.20;86.20;;;;;;4970774;28;20043;-54
2022/03/07 03:05:39;;;;;;;11.02;9.90;;;-1.20;86.80;;;;;;4970776;28;20034;-56
2022/03/07 03:08:05;;;;;;;11.38;9.20;;;-1.20;87.00;;;;;;4972023;28;20031;-56
2022/03/07 03:10:30;;;;;;;10.45;9.38;;;-1.20;86.50;;;;;;4970640;28;20023;-55
2022/03/07 03:12:56;;;;;;;10.80;9.70;;;-1.20;87.20;;;;;;4970756;28;20126;-55
2022/03/07 03:15:22;;;;;;;11.52;10.07;;;-1.20;87.10;;;;;;4970949;28;20121;-54
2022/03/07 03:17:48;;;;;;;10.57;9.27;;;-1.20;87.00;;;;;;4970589;28;20031;-56
2022/03/07 03:20:16;;;;;;;11.45;9.80;;;-1.30;87.00;;;;;;4971416;28;20030;-55
2022/03/07 03:22:43;;;;;;;11.68;9.38;;;-1.30;86.50;;;;;;4970445;28;20023;-54
2022/03/07 03:25:11;;;;;;;10.82;9.68;;;-1.30;86.20;;;;;;4970990;28;20031;-56
2022/03/07 03:27:37;;;;;;;11.82;10.20;;;-1.30;87.50;;;;;;4970994;28;20038;-55
2022/03/07 03:30:05;;;;;;;10.70;9.20;;;-1.30;86.80;;;;;;4970776;28;20034;-56
2022/03/07 03:32:32;;;;;;;14.43;11.57;;;-1.30;87.50;;;;;;4971211;28;20019;-56
2022/03/07 03:34:57;;;;;;;67.03;31.25;;;-1.30;86.90;;;;;;4970468;28;20018;-57
2022/03/07 03:37:27;;;;;;;15.25;11.30;;;-1.30;87.10;;;;;;4970141;28;20117;-55
2022/03/07 03:39:53;;;;;;;14.38;10.85;;;-1.30;87.60;;;;;;4969420;28;20082;-55
2022/03/07 03:42:19;;;;;;;19.45;14.98;;;-1.40;87.70;;;;;;4969913;28;20508;-56
2022/03/07 03:44:45;;;;;;;13.98;11.75;;;-1.40;87.60;;;;;;4971050;28;20019;-55
2022/03/07 03:47:11;;;;;;;13.90;11.10;;;-1.40;88.20;;;;;;4970838;28;20022;-55
2022/03/07 03:49:36;;;;;;;13.23;11.82;;;-1.30;87.10;;;;;;4970479;28;20533;-55
2022/03/07 03:52:04;;;;;;;14.20;10.38;;;-1.30;87.80;;;;;;4970520;28;20035;-55
2022/03/07 03:54:30;;;;;;;14.52;13.20;;;-1.30;87.70;;;;;;4970092;28;20086;-56
2022/03/07 03:56:55;;;;;;;13.18;9.50;;;-1.30;86.80;;;;;;4970565;28;20449;-55
2022/03/07 03:59:21;;;;;;;17.80;12.93;;;-1.30;87.10;;;;;;4970272;28;20097;-56
2022/03/07 04:01:49;;;;;;;10.80;9.70;;;-1.20;87.10;;;;;;4969305;28;20027;-54
2022/03/07 04:04:15;;;;;;;17.08;12.30;;;-1.20;87.10;;;;;;4970156;28;20023;-55
2022/03/07 04:06:42;;;;;;;11.20;9.45;;;-1.20;87.80;;;;;;4970292;28;20115;-56
2022/03/07 04:09:10;;;;;;;11.60;10.35;;;-1.20;87.70;;;;;;4970094;28;20031;-56
2022/03/07 04:11:35;;;;;;;13.32;9.55;;;-1.10;88.10;;;;;;4969892;28;20031;-55
2022/03/07 04:14:02;;;;;;;9.90;8.77;;;-1.10;87.80;;;;;;4984618;28;20070;-55
2022/03/07 04:16:28;;;;;;;10.35;9.02;;;-1.20;87.60;;;;;;4970085;28;20027;-56
2022/03/07 04:18:53;;;;;;;11.57;9.63;;;-1.20;87.20;;;;;;4970090;28;20466;-56
2022/03/07 04:21:20;;;;;;;12.80;11.50;;;-1.20;88.30;;;;;;4969533;28;20449;-54
2022/03/07 04:23:45;;;;;;;14.48;11.25;;;-1.10;88.50;;;;;;4969868;28;20022;-56
2022/03/07 04:26:11;;;;;;;12.68;10.68;;;-1.10;88.50;;;;;;4970901;28;20070;-55
2022/03/07 04:28:36;;;;;;;10.25;9.25;;;-1.10;89.00;;;;;;4969692;28;20134;-55
2022/03/07 04:31:02;;;;;;;10.88;9.00;;;-1.10;89.50;;;;;;4970361;28;20027;-55
2022/03/07 04:33:28;;;;;;;9.77;8.77;;;-1.10;88.20;;;;;;4969552;28;20031;-57
2022/03/07 04:35:53;;;;;;;9.68;8.73;;;-1.10;88.90;;;;;;4969806;28;20490;-55
2022/03/07 04:38:24;;;;;;;9.10;8.20;;;-1.10;89.50;;;;;;4970108;28;20042;-55
2022/03/07 04:40:50;;;;;;;10.13;9.13;;;-1.10;90.00;;;;;;4968941;28;20027;-56
2022/03/07 04:43:15;;;;;;;11.32;10.02;;;-1.10;89.10;;;;;;4968925;28;20081;-55
2022/03/07 04:45:41;;;;;;;10.23;9.18;;;-1.20;89.40;;;;;;4984192;28;20038;-56
2022/03/07 04:48:07;;;;;;;9.70;8.73;;;-1.20;89.20;;;;;;4970050;28;20035;-57
2022/03/07 04:50:32;;;;;;;9.80;8.85;;;-1.20;89.10;;;;;;4969800;28;20023;-55
2022/03/07 04:52:58;;;;;;;17.05;8.95;;;-1.20;89.40;;;;;;4969682;28;20031;-56
2022/03/07 04:55:24;;;;;;;9.48;8.57;;;-1.20;90.10;;;;;;4970206;28;20038;-55
2022/03/07 04:57:49;;;;;;;11.57;8.27;;;-1.20;90.10;;;;;;4969486;28;20398;-55
2022/03/07 05:00:16;;;;;;;12.98;8.82;;;-1.10;89.90;;;;;;4969189;28;20042;-55
2022/03/07 05:02:42;;;;;;;10.55;8.48;;;-1.10;90.00;;;;;;4969183;28;20105;-56
2022/03/07 05:05:08;;;;;;;11.25;10.02;;;-1.10;90.10;;;;;;4970140;28;20510;-55
2022/03/07 05:07:34;;;;;;;10.68;9.68;;;-1.10;89.90;;;;;;4969986;28;20608;-54
2022/03/07 05:10:00;;;;;;;10.80;9.00;;;-1.10;90.30;;;;;;4982542;28;20086;-55
2022/03/07 05:12:25;;;;;;;10.02;8.65;;;-1.10;90.20;;;;;;4969198;28;20536;-56
2022/03/07 05:14:51;;;;;;;10.27;9.18;;;-1.10;90.20;;;;;;4968857;28;20106;-57
2022/03/07 05:17:17;;;;;;;10.32;9.23;;;-1.10;90.40;;;;;;4970520;28;20031;-57
2022/03/07 05:19:45;;;;;;;12.80;9.50;;;-1.10;90.30;;;;;;4969497;28;20629;-54
2022/03/07 05:22:10;;;;;;;13.18;9.48;;;-1.20;90.30;;;;;;4969178;28;20031;-56
2022/03/07 05:24:36;;;;;;;11.50;9.48;;;-1.20;90.50;;;;;;4969816;28;20668;-55
2022/03/07 05:27:02;;;;;;;13.02;9.35;;;-1.20;90.30;;;;;;4972923;28;20038;-54
2022/03/07 05:29:27;;;;;;;11.52;9.43;;;-1.20;90.30;;;;;;4973212;28;20023;-58
2022/03/07 05:31:53;;;;;;;10.52;8.65;;;-1.20;90.40;;;;;;4973166;28;20082;-54
2022/03/07 05:34:18;;;;;;;11.00;9.10;;;-1.20;90.80;;;;;;4972900;28;20030;-55
2022/03/07 05:36:44;;;;;;;11.98;10.20;;;-1.20;90.60;;;;;;4973129;28;20090;-55
2022/03/07 05:39:10;;;;;;;11.65;10.45;;;-1.20;90.60;;;;;;4972634;28;20055;-56
2022/03/07 05:41:36;;;;;;;11.55;10.15;;;-1.20;90.90;;;;;;4987588;28;20034;-57
2022/03/07 05:44:02;;;;;;;12.80;9.38;;;-1.20;91.00;;;;;;4973181;28;20027;-56
2022/03/07 05:46:28;;;;;;;12.43;10.40;;;-1.20;91.10;;;;;;4973184;28;20494;-56
2022/03/07 05:48:54;;;;;;;11.88;10.68;;;-1.20;91.20;;;;;;4972031;28;20077;-56
2022/03/07 05:51:23;;;;;;;12.43;11.13;;;-1.20;91.10;;;;;;4971772;28;20090;-56
2022/03/07 05:53:50;;;;;;;11.38;10.02;;;-1.20;91.00;;;;;;4972905;28;20058;-56
2022/03/07 05:56:15;;;;;;;11.30;10.13;;;-1.20;91.10;;;;;;4972874;28;20026;-55
2022/03/07 05:58:41;;;;;;;13.77;10.55;;;-1.20;91.10;;;;;;4972510;28;20033;-55
2022/03/07 06:01:06;;;;;;;12.18;9.90;;;-1.20;91.30;;;;;;4971653;28;20053;-56
2022/03/07 06:03:32;;;;;;;13.90;10.73;;;-1.20;91.30;;;;;;4972128;28;20027;-56
2022/03/07 06:06:00;;;;;;;15.00;10.35;;;-1.20;91.30;;;;;;4972879;28;20031;-56
2022/03/07 06:08:26;;;;;;;13.20;10.35;;;-1.10;91.60;;;;;;4972732;28;20039;-56
2022/03/07 06:10:52;;;;;;;14.77;10.13;;;-1.10;91.40;;;;;;4972485;28;20121;-57
2022/03/07 06:13:19;;;;;;;10.88;9.35;;;-1.10;91.30;;;;;;4971500;28;20039;-56
2022/03/07 06:15:45;;;;;;;10.95;9.80;;;-1.10;91.00;;;;;;4972252;28;20665;-57
2022/03/07 06:18:11;;;;;;;11.70;10.48;;;-1.10;90.80;;;;;;4971021;28;20042;-55
2022/03/07 06:20:38;;;;;;;13.38;11.07;;;-1.00;91.20;;;;;;4971237;28;20023;-55
2022/03/07 06:23:04;;;;;;;17.83;10.60;;;-1.00;91.20;;;;;;4971863;28;20026;-55
2022/03/07 06:25:33;;;;;;;13.70;11.02;;;-0.90;91.20;;;;;;4971548;28;20023;-57
2022/03/07 06:28:02;;;;;;;16.80;11.77;;;-0.90;90.80;;;;;;4972159;28;20035;-56
2022/03/07 06:30:28;;;;;;;14.82;12.05;;;-0.90;90.90;;;;;;4970862;28;20070;-57
2022/03/07 06:32:54;;;;;;;12.95;11.13;;;-0.80;91.00;;;;;;4971351;28;20224;-56
2022/03/07 06:35:19;;;;;;;10.88;9.50;;;-0.80;91.00;;;;;;4971813;28;20026;-55
2022/03/07 06:37:50;;;;;;;11.35;10.13;;;-0.80;90.90;;;;;;4970842;28;20030;-56
2022/03/07 06:40:17;;;;;;;15.93;10.75;;;-0.80;90.60;;;;;;4971483;28;20174;-55
2022/03/07 06:42:43;;;;;;;16.77;11.02;;;-0.70;90.50;;;;;;4971287;28;20117;-56
2022/03/07 06:45:12;;;;;;;18.67;13.10;;;-0.70;90.50;;;;;;4971842;28;20038;-55
2022/03/07 06:47:39;;;;;;;23.45;14.90;;;-0.80;90.60;;;;;;4971459;28;20015;-54
2022/03/07 06:50:05;;;;;;;14.95;10.85;;;-0.80;91.00;;;;;;4985894;28;20031;-56
2022/03/07 06:52:30;;;;;;;17.42;12.00;;;-0.90;91.50;;;;;;4971125;28;20038;-55
2022/03/07 06:54:56;;;;;;;16.75;12.80;;;-0.90;92.00;;;;;;4971968;28;20042;-55
2022/03/07 06:57:22;;;;;;;12.02;10.73;;;-0.90;92.30;;;;;;4971208;28;20393;-54
2022/03/07 06:59:48;;;;;;;17.20;11.55;;;-1.00;92.60;;;;;;4970808;28;20498;-56
2022/03/07 07:02:14;;;;;;;17.52;13.90;;;-1.00;92.90;;;;;;4971772;28;20038;-56
2022/03/07 07:04:39;;;;;;;15.32;11.68;;;-1.00;93.10;;;;;;4970698;28;20030;-56
2022/03/07 07:07:05;;;;;;;14.90;10.88;;;-0.90;93.40;;;;;;4971312;28;20030;-57
2022/03/07 07:09:31;;;;;;;13.77;12.25;;;-0.80;93.40;;;;;;4970916;28;20401;-55
2022/03/07 07:11:56;;;;;;;11.73;10.52;;;-0.70;93.70;;;;;;4971275;28;20046;-55
2022/03/07 07:14:22;;;;;;;14.73;11.45;;;-0.50;93.10;;;;;;4970376;28;20363;-54
2022/03/07 07:16:47;;;;;;;14.45;11.82;;;-0.40;93.10;;;;;;4971226;28;20023;-56
2022/03/07 07:19:13;;;;;;;13.52;11.00;;;-0.30;92.90;;;;;;4970790;28;20569;-53
2022/03/07 07:21:40;;;;;;;14.40;12.25;;;-0.20;92.40;;;;;;4970959;28;20043;-55
2022/03/07 07:24:06;;;;;;;13.48;12.07;;;0.00;92.20;;;;;;4971013;28;20037;-55
2022/03/07 07:26:32;;;;;;;22.92;14.50;;;0.10;91.80;;;;;;4970664;28;20030;-56
2022/03/07 07:28:58;;;;;;;18.58;11.57;;;0.20;91.70;;;;;;4970831;28;20474;-56
2022/03/07 07:31:23;;;;;;;12.02;10.80;;;0.40;91.10;;;;;;4970186;28;20027;-57
2022/03/07 07:33:49;;;;;;;13.52;11.55;;;0.50;91.00;;;;;;4970825;28;20022;-57
2022/03/07 07:36:15;;;;;;;13.18;10.75;;;0.70;91.10;;;;;;4969775;28;20484;-55
2022/03/07 07:38:40;;;;;;;12.25;10.55;;;0.80;90.60;;;;;;4970206;28;20031;-56
2022/03/07 07:41:06;;;;;;;13.90;10.85;;;0.90;90.10;;;;;;4970941;28;20070;-56
2022/03/07 07:43:32;;;;;;;12.32;11.00;;;1.00;89.80;;;;;;4984980;28;20501;-56
2022/03/07 07:45:58;;;;;;;20.40;12.55;;;1.10;90.00;;;;;;4970870;28;20038;-55
2022/03/07 07:48:24;;;;;;;14.40;10.20;;;1.10;89.70;;;;;;4969629;28;20034;-56
2022/03/07 07:50:50;;;;;;;15.25;10.20;;;1.20;88.90;;;;;;4970178;28;20106;-56
2022/03/07 07:53:15;;;;;;;9.45;8.45;;;2.40;89.60;;;;;;4970518;28;20386;-56
2022/03/07 07:55:41;;;;;;;11.00;9.52;;;3.60;82.00;;;;;;4970572;28;20553;-56
2022/03/07 07:58:07;;;;;;;10.27;8.98;;;4.00;77.60;;;;;;4970231;28;20129;-55
2022/03/07 08:00:32;;;;;;;10.68;8.50;;;4.30;78.60;;;;;;4968642;28;20053;-56
2022/03/07 08:02:58;;;;;;;8.38;7.57;;;4.50;74.80;;;;;;4970546;28;20049;-56
2022/03/07 08:05:23;;;;;;;7.10;5.50;;;4.40;72.50;;;;;;4970312;28;20031;-57
2022/03/07 08:07:49;;;;;;;6.40;5.70;;;3.90;71.30;;;;;;4969767;28;20062;-57
2022/03/07 08:10:16;;;;;;;6.03;5.43;;;4.50;75.30;;;;;;4967107;28;20035;-55
2022/03/07 08:12:43;;;;;;;7.18;5.70;;;4.40;66.70;;;;;;4968553;28;20498;-55
2022/03/07 08:15:12;;;;;;;7.35;6.25;;;4.10;67.80;;;;;;4970288;28;20550;-57
2022/03/07 08:17:46;;;;;;;7.18;6.57;;;4.30;71.40;;;;;;4969270;28;20174;-58
2022/03/07 08:20:15;;;;;;;7.57;6.43;;;5.20;64.80;;;;;;4969269;28;20522;-55
2022/03/07 08:22:42;;;;;;;6.55;5.95;;;5.10;63.30;;;;;;4968750;28;20027;-57
2022/03/07 08:25:09;;;;;;;11.73;7.25;;;4.40;62.70;;;;;;4969530;28;20061;-55
2022/03/07 08:27:35;;;;;;;6.80;5.78;;;4.30;65.10;;;;;;4969292;28;20758;-57
2022/03/07 08:30:04;;;;;;;5.15;4.25;;;4.50;61.70;;;;;;4967917;28;20035;-57
2022/03/07 08:32:30;;;;;;;7.07;6.38;;;4.00;60.50;;;;;;4968817;28;20097;-56
2022/03/07 08:34:57;;;;;;;6.38;5.75;;;3.20;63.70;;;;;;4969509;28;20113;-57
2022/03/07 08:37:22;;;;;;;9.50;6.72;;;3.30;65.70;;;;;;4969785;28;20486;-56
2022/03/07 08:39:48;;;;;;;7.28;6.55;;;3.30;66.80;;;;;;4969436;28;20031;-57
2022/03/07 08:42:13;;;;;;;6.40;5.80;;;3.40;67.70;;;;;;4969755;28;20051;-58
2022/03/07 08:44:39;;;;;;;6.65;5.95;;;4.40;66.60;;;;;;4969064;28;20015;-56
2022/03/07 08:47:05;;;;;;;6.80;5.35;;;4.30;62.00;;;;;;4970105;28;20548;-55
2022/03/07 08:49:30;;;;;;;6.05;5.45;;;4.40;64.70;;;;;;4969028;28;20090;-57
2022/03/07 08:51:56;;;;;;;5.32;4.82;;;5.20;62.20;;;;;;4968501;28;20031;-56
2022/03/07 08:54:21;;;;;;;6.22;5.18;;;6.00;58.80;;;;;;4969342;28;20031;-55
2022/03/07 08:56:47;;;;;;;5.75;5.15;;;6.20;58.80;;;;;;4969229;28;20558;-56
2022/03/07 08:59:13;;;;;;;5.70;5.13;;;7.00;56.60;;;;;;4969971;28;20015;-58
2022/03/07 09:01:38;;;;;;;5.28;4.78;;;7.40;54.40;;;;;;4971428;28;20689;-56
2022/03/07 09:04:04;;;;;;;5.68;4.70;;;8.20;54.30;;;;;;4973282;28;20054;-57
2022/03/07 09:06:30;;;;;;;6.05;5.43;;;7.80;52.60;;;;;;4973388;28;20039;-56
2022/03/07 09:08:55;;;;;;;4.80;4.40;;;7.50;54.40;;;;;;4972349;28;20046;-55
2022/03/07 09:11:21;;;;;;;8.65;4.18;;;7.70;54.90;;;;;;4973718;28;20459;-57
2022/03/07 09:13:47;;;;;;;4.32;3.92;;;6.50;55.00;;;;;;4972283;28;20410;-57
2022/03/07 09:16:14;;;;;;;4.80;4.40;;;6.50;56.20;;;;;;4973373;28;20027;-57
2022/03/07 09:18:41;;;;;;;4.32;3.92;;;6.70;56.80;;;;;;4971459;28;20065;-58
2022/03/07 09:21:07;;;;;;;4.57;4.18;;;6.90;55.00;;;;;;4972483;28;20089;-56
2022/03/07 09:23:37;;;;;;;4.55;4.00;;;7.30;56.40;;;;;;4986630;28;20054;-57
2022/03/07 09:26:05;;;;;;;6.03;4.63;;;7.60;55.20;;;;;;4972615;28;20027;-57
2022/03/07 09:28:31;;;;;;;6.93;4.90;;;6.90;54.00;;;;;;4972879;28;20030;-57
2022/03/07 09:30:57;;;;;;;5.75;4.68;;;6.40;56.30;;;;;;4972338;28;20126;-56
2022/03/07 09:33:24;;;;;;;7.45;4.68;;;5.60;59.10;;;;;;4972703;28;20059;-56
2022/03/07 09:35:50;;;;;;;5.32;4.53;;;5.20;59.80;;;;;;4971855;28;20085;-56
2022/03/07 09:38:16;;;;;;;5.50;5.00;;;4.40;61.20;;;;;;4970997;28;20102;-55
2022/03/07 09:40:42;;;;;;;7.03;4.30;;;4.10;62.30;;;;;;4972949;28;20027;-56
2022/03/07 09:43:08;;;;;;;7.07;5.10;;;3.60;64.50;;;;;;4971323;28;20035;-56
2022/03/07 09:45:34;;;;;;;7.47;4.57;;;3.80;64.90;;;;;;4973015;28;20037;-57
2022/03/07 09:48:00;;;;;;;4.03;3.63;;;3.40;65.10;;;;;;4971959;28;20039;-57
2022/03/07 09:50:26;;;;;;;8.70;5.05;;;3.70;66.70;;;;;;4972458;28;20039;-58
2022/03/07 09:52:54;;;;;;;5.38;4.65;;;3.80;65.60;;;;;;4952013;28;20403;-56
2022/03/07 09:55:21;;;;;;;5.10;4.10;;;3.80;67.10;;;;;;4951948;28;20506;-56
2022/03/07 09:57:47;;;;;;;5.28;4.60;;;3.60;66.10;;;;;;4953279;28;20135;-56
2022/03/07 10:00:15;;;;;;;13.90;9.40;;;3.50;66.40;;;;;;4951905;28;20035;-55
2022/03/07 10:02:51;;;;;;;10.63;7.68;;;3.30;66.40;;;;;;4954437;28;20023;-56
2022/03/07 10:05:16;;;;;;;5.80;5.13;;;3.20;68.10;;;;;;4972154;28;20479;-55
2022/03/07 10:07:44;;;;;;;6.32;5.72;;;3.40;67.40;;;;;;4971490;28;20049;-56
2022/03/07 10:10:10;;;;;;;5.88;5.28;;;3.90;66.90;;;;;;4971621;28;20038;-54
2022/03/07 10:12:44;;;;;;;5.40;4.80;;;4.10;65.80;;;;;;4970410;28;20109;-56
2022/03/07 10:15:12;;;;;;;11.02;8.38;;;4.40;63.80;;;;;;4972032;28;20050;-56
2022/03/07 10:17:45;;;;;;;6.28;5.25;;;4.90;62.50;;;;;;4972280;28;20026;-57
2022/03/07 10:20:11;;;;;;;7.20;5.50;;;4.80;62.90;;;;;;4971869;28;20110;-56
2022/03/07 10:22:45;;;;;;;5.72;4.38;;;4.40;62.90;;;;;;4971515;28;20383;-55
2022/03/07 10:25:12;;;;;;;6.53;4.32;;;5.10;64.00;;;;;;4970574;28;20070;-56
2022/03/07 10:27:40;;;;;;;7.63;4.65;;;6.30;62.80;;;;;;4971139;28;20033;-56
2022/03/07 10:30:11;;;;;;;8.25;7.20;;;7.70;60.00;;;;;;4970846;28;20062;-55
2022/03/07 10:32:37;;;;;;;7.03;4.43;;;8.60;56.40;;;;;;4970669;28;20035;-55
2022/03/07 10:35:02;;;;;;;5.18;3.78;;;7.60;53.50;;;;;;4972218;28;20039;-56
2022/03/07 10:37:36;;;;;;;6.97;4.03;;;7.90;56.40;;;;;;4971257;28;20474;-57
2022/03/07 10:40:03;;;;;;;5.20;4.15;;;7.70;56.80;;;;;;4971503;28;20110;-55
2022/03/07 10:42:29;;;;;;;5.45;3.95;;;7.40;56.80;;;;;;4970853;28;20031;-57
2022/03/07 10:45:03;;;;;;;5.88;4.78;;;7.50;57.30;;;;;;4971045;28;20112;-56
2022/03/07 10:47:30;;;;;;;5.10;4.32;;;7.50;56.50;;;;;;4971186;28;20027;-56
2022/03/07 10:49:57;;;;;;;5.80;4.97;;;7.00;57.60;;;;;;4971569;28;20022;-56
2022/03/07 10:52:24;;;;;;;10.43;6.30;;;6.80;59.20;;;;;;4970618;28;20037;-55
2022/03/07 10:54:51;;;;;;;6.55;5.82;;;5.90;59.80;;;;;;4971132;28;20054;-56
2022/03/07 10:57:21;;;;;;;5.35;4.57;;;5.20;60.90;;;;;;4970143;28;20046;-56
2022/03/07 10:59:47;;;;;;;6.07;4.67;;;5.10;63.00;;;;;;4969698;28;20070;-56
2022/03/07 11:02:16;;;;;;;5.22;4.43;;;5.50;62.00;;;;;;4971497;28;20034;-56
2022/03/07 11:04:48;;;;;;;5.38;4.88;;;6.00;60.60;;;;;;4970706;28;20023;-57
2022/03/07 11:07:14;;;;;;;6.30;5.70;;;6.60;62.00;;;;;;4968709;28;20030;-58
2022/03/07 11:09:41;;;;;;;6.55;5.10;;;7.30;59.60;;;;;;4970598;28;20031;-56
2022/03/07 11:12:14;;;;;;;6.60;5.55;;;8.00;59.50;;;;;;4967906;28;20035;-56
2022/03/07 11:14:41;;;;;;;6.05;5.40;;;8.10;57.20;;;;;;4968991;28;20025;-56
2022/03/07 11:17:12;;;;;;;6.32;5.72;;;8.30;55.40;;;;;;4971397;28;20480;-56
2022/03/07 11:19:41;;;;;;;6.25;5.50;;;9.10;57.00;;;;;;4971313;28;20490;-56
2022/03/07 11:22:07;;;;;;;7.97;5.90;;;9.00;53.30;;;;;;4970080;28;20371;-56
2022/03/07 11:24:37;;;;;;;6.20;4.90;;;9.20;56.40;;;;;;4969940;28;20031;-55
2022/03/07 11:27:03;;;;;;;5.43;4.93;;;9.60;55.10;;;;;;4969238;28;20027;-56
2022/03/07 11:29:40;;;;;;;6.25;5.75;;;10.50;53.40;;;;;;4970990;28;20019;-56
2022/03/07 11:32:11;;;;;;;6.80;4.97;;;10.80;52.10;;;;;;4970433;28;20085;-57
2022/03/07 11:34:38;;;;;;;5.57;5.10;;;11.30;52.80;;;;;;4970244;28;20035;-55
2022/03/07 11:37:15;;;;;;;5.63;4.80;;;10.70;48.30;;;;;;4970439;28;20089;-57
2022/03/07 11:39:41;;;;;;;5.72;5.22;;;10.50;51.20;;;;;;4969973;28;20118;-57
2022/03/07 11:42:11;;;;;;;5.75;5.25;;;10.30;49.90;;;;;;4970594;28;20126;-56
2022/03/07 11:44:36;;;;;;;5.00;4.57;;;9.20;52.50;;;;;;4970759;28;20031;-57
2022/03/07 11:47:17;;;;;;;5.45;4.95;;;8.80;53.10;;;;;;4970509;28;20027;-56
2022/03/07 11:49:44;;;;;;;5.93;4.85;;;8.40;54.40;;;;;;4969159;28;20038;-58
2022/03/07 11:52:16;;;;;;;5.78;5.28;;;7.70;55.10;;;;;;4971562;28;20505;-56
2022/03/07 11:54:58;;;;;;;5.63;5.13;;;7.30;56.40;;;;;;4969528;28;20030;-56
2022/03/07 11:57:39;;;;;;;5.28;4.78;;;6.50;57.50;;;;;;4969803;28;20038;-56
2022/03/07 12:00:23;;;;;;;9.60;5.60;;;6.60;58.40;;;;;;4968651;28;20030;-56
2022/03/07 12:03:08;;;;;;;5.63;5.07;;;7.00;57.90;;;;;;4968874;28;20019;-56
2022/03/07 12:05:35;;;;;;;7.40;5.50;;;7.00;58.40;;;;;;4970225;28;20465;-55
2022/03/07 12:08:27;;;;;;;6.35;5.60;;;8.00;58.90;;;;;;4950397;28;20049;-56
2022/03/07 12:10:53;;;;;;;7.65;5.70;;;9.20;56.10;;;;;;4970430;28;20031;-56
2022/03/07 12:13:20;;;;;;;6.50;5.75;;;10.00;53.60;;;;;;4968972;28;20034;-56
2022/03/07 12:15:55;;;;;;;6.18;5.57;;;9.90;52.00;;;;;;4969225;28;20560;-56
2022/03/07 12:18:21;;;;;;;5.63;5.13;;;10.20;53.10;;;;;;4969094;28;20035;-56
2022/03/07 12:20:58;;;;;;;5.57;5.07;;;9.60;50.60;;;;;;4968752;28;20033;-56
2022/03/07 12:23:26;;;;;;;6.18;5.22;;;8.70;52.90;;;;;;4969585;28;20027;-56
2022/03/07 12:26:01;;;;;;;6.47;5.75;;;8.40;54.10;;;;;;4969933;28;20019;-55
2022/03/07 12:28:32;;;;;;;5.22;4.72;;;8.30;55.60;;;;;;4969451;28;20528;-55
2022/03/07 12:30:59;;;;;;;8.13;6.50;;;8.70;57.00;;;;;;4968962;28;20053;-55
2022/03/07 12:33:25;;;;;;;5.97;5.38;;;9.30;54.80;;;;;;4969901;28;20034;-57
2022/03/07 12:36:09;;;;;;;12.95;8.98;;;9.70;53.20;;;;;;4969209;28;20114;-57
2022/03/07 12:38:44;;;;;;;6.35;5.57;;;9.40;54.30;;;;;;4970514;28;20031;-57